createdAt,value
2022-11-04T00:01:22.709Z,18.751092105913358
2022-11-04T00:04:20.043Z,18.785778313144057
2022-11-04T00:41:32.900Z,19.06262610910926
2022-11-04T00:44:17.671Z,19.039501898923483
2022-11-04T00:47:18.059Z,19.090246701221712
2022-11-04T00:51:16.108Z,19.094100737998907
2022-11-04T00:54:16.511Z,19.091531380129254
2022-11-04T00:57:17.584Z,19.092173719589844
2022-11-04T01:01:18.885Z,19.10758986800829
2022-11-04T01:04:16.544Z,19.12107900002311
2022-11-04T01:07:17.161Z,19.13713749313174
2022-11-04T01:11:15.911Z,19.14420323099994
2022-11-04T01:14:16.482Z,19.16989682788635
2022-11-04T01:17:16.773Z,19.19559043204872
2022-11-04T01:21:17.137Z,19.23862723532111
2022-11-04T01:24:16.327Z,19.22449574542843
2022-11-04T01:27:16.199Z,19.25532808985008
2022-11-04T01:31:18.555Z,19.2951532169016
2022-11-04T01:34:16.997Z,19.308000035808437
2022-11-04T01:37:17.090Z,19.362599036455595
2022-11-04T01:41:22.184Z,19.381869279822514
2022-11-04T01:44:56.980Z,19.39921250235202
2022-11-04T01:47:19.013Z,19.47115479416825
2022-11-04T01:51:17.069Z,19.500702537689723
2022-11-04T01:54:17.688Z,19.538600744553058
2022-11-04T01:57:24.252Z,19.559798053600026
2022-11-04T02:01:17.115Z,19.611827833165535
2022-11-04T02:04:32.751Z,19.623390010454113
2022-11-04T02:07:16.801Z,19.63944859246585
2022-11-04T02:12:50.156Z,19.66257295555588
2022-11-04T02:14:17.245Z,19.711391074766652
2022-11-04T02:17:31.702Z,19.710748730922298
2022-11-04T02:22:18.924Z,19.704967636527726
2022-11-04T02:24:41.283Z,19.763420941261664
2022-11-04T02:27:36.073Z,19.785260647199266
2022-11-04T02:31:23.745Z,19.817377871363078
2022-11-04T02:34:21.994Z,19.89831332667827
2022-11-04T02:37:27.303Z,19.941992808748275
2022-11-04T02:41:23.422Z,19.99787688264623
2022-11-04T02:44:19.153Z,20.024213067335314
2022-11-04T02:47:21.002Z,20.08395127069707
2022-11-04T02:51:23.245Z,20.14497420721318
2022-11-04T02:54:23.778Z,20.199573711515768
2022-11-04T02:57:23.085Z,20.25096151028447
2022-11-04T03:01:20.351Z,20.297210554060076
2022-11-04T03:04:21.071Z,20.341532576466214
2022-11-04T03:07:21.742Z,20.378788785961753
2022-11-04T03:11:18.858Z,20.4231108482174
2022-11-04T03:14:21.696Z,20.455228298163274
2022-11-04T03:17:22.343Z,20.455228298163274
2022-11-04T03:21:18.420Z,20.498908048334123
2022-11-04T03:24:16.715Z,20.512397387195325
2022-11-04T03:27:23.396Z,20.559288914077115
2022-11-04T03:31:22.742Z,20.586909961800938
2022-11-04T03:34:16.925Z,20.59911461347365
2022-11-04T03:37:17.911Z,20.602326364186684
2022-11-04T03:41:21.298Z,20.636370928734323
2022-11-04T03:44:16.674Z,20.644721484253477
2022-11-04T03:47:18.326Z,20.656926143702368
2022-11-04T03:51:15.995Z,20.709598903312873
2022-11-04T03:54:17.798Z,20.70253304354055
2022-11-04T03:57:33.693Z,20.687758974885583
2022-11-04T04:01:30.266Z,20.6549990921013
2022-11-04T04:04:22.464Z,20.590121712081963
2022-11-04T04:07:21.010Z,20.554792465243462
2022-11-04T04:11:22.521Z,20.419899103848092
2022-11-04T04:14:42.853Z,20.3582336340035
2022-11-04T04:17:23.464Z,20.29399881414729
2022-11-04T04:21:20.673Z,20.19443493323961
2022-11-04T04:31:50.957Z,19.91116023098666
2022-11-04T04:34:18.332Z,19.889320494744698
2022-11-04T04:37:20.432Z,19.825086006854054
2022-11-04T04:51:17.809Z,19.764063285478915
2022-11-04T04:54:17.112Z,19.827013040829115
2022-11-04T04:57:16.585Z,19.801319257860087
2022-11-04T05:01:16.385Z,19.806458013871815
2022-11-04T05:04:16.670Z,19.84756807244303
2022-11-04T05:07:16.720Z,19.835363521860653
2022-11-04T05:11:16.190Z,19.87583124851553
2022-11-04T05:14:16.635Z,19.891247530084
2022-11-04T05:17:16.684Z,19.91886837444481
2022-11-04T05:21:16.240Z,20.01008145508831
2022-11-04T05:24:16.451Z,20.02678245161669
2022-11-04T05:27:16.392Z,20.027424797698405
2022-11-04T05:31:16.277Z,20.054403337236728
2022-11-04T05:34:16.911Z,20.050549259668696
2022-11-04T05:37:16.479Z,20.030636528175183
2022-11-04T05:41:26.283Z,20.035775297174496
2022-11-04T05:44:16.722Z,20.058899761273004
2022-11-04T05:47:16.717Z,20.05504568351398
2022-11-04T05:51:18.142Z,20.06532322456851
2022-11-04T05:54:16.627Z,20.056330376082133
2022-11-04T05:57:16.686Z,20.076885459646384
2022-11-04T06:01:35.269Z,20.11221452040227
2022-11-04T06:04:18.781Z,20.162959922648678
2022-11-04T06:07:17.844Z,20.18929615525449
2022-11-04T06:11:18.053Z,20.226552302240453
2022-11-04T06:14:18.708Z,20.206639532120697
2022-11-04T06:17:19.304Z,20.1513976766023
2022-11-04T06:21:25.354Z,20.20407014274615
2022-11-04T06:24:17.006Z,20.145616554131628
2022-11-04T06:27:16.904Z,20.119280334204177
2022-11-04T06:31:17.458Z,20.210493616318946
2022-11-04T06:34:16.550Z,20.161675228570765
2022-11-04T06:37:16.536Z,20.207924226835257
2022-11-04T06:41:17.367Z,20.182230336000156
2022-11-04T06:44:17.186Z,20.18608441916158
2022-11-04T06:47:22.107Z,20.15717879944132
2022-11-04T06:51:16.448Z,20.165529310859075
2022-11-04T06:54:17.053Z,20.168741046224387
2022-11-04T06:57:16.891Z,20.137908391410384
2022-11-04T07:01:21.872Z,20.179660947316826
2022-11-04T07:04:17.063Z,20.177091558706252
2022-11-04T07:07:17.259Z,20.15396706448528
2022-11-04T07:11:18.399Z,20.165529310859075
2022-11-04T07:14:16.956Z,20.19058084972348
2022-11-04T07:17:17.105Z,20.17516451729607
2022-11-04T07:21:17.247Z,20.216274742923268
2022-11-04T07:24:17.185Z,20.2098512689412
2022-11-04T07:27:17.073Z,20.232333429867957
2022-11-04T07:31:18.964Z,20.274728377058
2022-11-04T07:34:18.994Z,20.2361875151576
2022-11-04T07:37:18.901Z,20.302349338157
2022-11-04T07:41:16.783Z,20.276013072736625
2022-11-04T07:44:16.477Z,20.316480995924213
2022-11-04T07:47:16.361Z,20.306845774480554
2022-11-04T07:51:19.358Z,20.3473137114197
2022-11-04T07:54:16.894Z,20.3441019697334
2022-11-04T07:57:30.044Z,20.29592585808132
2022-11-04T08:01:19.661Z,20.076243113214513
2022-11-04T08:04:16.254Z,20.02935183597083
2022-11-04T08:07:16.242Z,20.06403853187303
2022-11-04T08:11:18.541Z,20.01329318495118
2022-11-04T08:14:17.101Z,20.03127887428418
2022-11-04T08:17:16.993Z,19.985029966059663
2022-11-04T08:21:16.489Z,19.96704428589437
2022-11-04T08:24:16.626Z,19.87197717853269
2022-11-04T08:27:16.364Z,19.812239114732893
2022-11-04T08:31:18.876Z,19.794895813254698
2022-11-04T08:34:18.448Z,19.774983137867913
2022-11-04T08:37:17.046Z,19.622747667232762
2022-11-04T08:41:18.773Z,19.567506167208556
2022-11-04T08:44:16.645Z,19.546308856360792
2022-11-04T08:47:16.127Z,19.566221481561662
2022-11-04T08:51:18.608Z,19.539243087178694
2022-11-04T08:54:16.414Z,19.543739485685457
2022-11-04T08:57:16.307Z,19.50776830387049
2022-11-04T09:01:17.574Z,19.497490825971273
2022-11-04T09:04:17.059Z,19.50391424952186
2022-11-04T09:07:16.605Z,19.527680920613058
2022-11-04T09:11:17.323Z,19.52446920793964
2022-11-04T09:14:18.247Z,19.501344880047053
2022-11-04T09:17:16.522Z,19.52575389299536
2022-11-04T09:21:16.433Z,19.500702537689723
2022-11-04T09:24:49.281Z,19.491067402875434
2022-11-04T09:27:16.812Z,19.525111550465226
2022-11-04T09:31:18.800Z,19.606689088176882
2022-11-04T09:34:18.635Z,19.58356473932954
2022-11-04T09:37:17.169Z,19.58356473932954
2022-11-04T09:41:41.606Z,19.611827833165535
2022-11-04T09:44:25.311Z,19.65036842985728
2022-11-04T09:47:21.892Z,19.63687921915298
2022-11-04T09:51:39.645Z,19.669638734342243
2022-11-04T09:54:27.503Z,19.66000358158817
2022-11-04T09:57:18.911Z,19.663215299059175
2022-11-04T10:01:27.213Z,19.69469013629132
2022-11-04T10:04:27.566Z,19.660645925073275
2022-11-04T10:07:30.195Z,19.66449998607941
2022-11-04T10:11:26.952Z,19.715887481804476
2022-11-04T10:14:38.512Z,19.720383889065126
2022-11-04T10:17:43.666Z,19.76020922024363
2022-11-04T10:21:28.478Z,19.740296552469317
2022-11-04T10:24:22.923Z,19.771771416440608
2022-11-04T10:27:22.594Z,19.791684091122534
2022-11-04T10:31:18.364Z,19.76020922024363
2022-11-04T10:34:27.887Z,19.738369520335983
2022-11-04T10:37:17.157Z,19.744792960939595
2022-11-04T10:41:24.367Z,19.720383889065126
2022-11-04T10:44:20.947Z,19.70753701176873
2022-11-04T10:47:27.652Z,19.70111357380265
2022-11-04T10:51:20.671Z,19.70882169941651
2022-11-04T10:54:17.128Z,19.730019048231135
2022-11-04T10:57:19.716Z,19.6722081085828
2022-11-04T11:01:27.211Z,19.68762435555409
2022-11-04T11:04:26.007Z,19.69661716749697
2022-11-04T11:07:49.253Z,19.688266699234738
2022-11-04T11:11:33.729Z,19.701755917578794
2022-11-04T11:14:19.696Z,19.684412637219065
2022-11-04T11:17:22.351Z,19.63816390580032
2022-11-04T11:21:43.431Z,19.71909920125363
2022-11-04T11:24:27.436Z,19.740938896522856
2022-11-04T11:27:30.385Z,19.742865928710764
2022-11-04T11:31:24.667Z,19.796822846588565
2022-11-04T11:34:20.436Z,19.802603946835735
2022-11-04T11:37:21.929Z,19.80003456890263
2022-11-04T11:41:25.290Z,19.84564103803141
2022-11-04T11:44:22.479Z,19.92464948246816
2022-11-04T11:47:20.634Z,19.961263175169826
2022-11-04T11:51:31.576Z,20.000446266181825
2022-11-04T11:54:22.649Z,20.044768143623607
2022-11-04T11:57:35.229Z,20.034490604897382
2022-11-04T12:01:25.290Z,20.01971664501798
2022-11-04T12:11:26.922Z,19.943919845206256
2022-11-04T12:14:30.303Z,19.917583683822976
2022-11-04T12:17:31.661Z,19.88867814964069
2022-11-04T12:21:22.675Z,19.780764236723552
2022-11-04T12:24:26.949Z,19.783333614110962
2022-11-04T12:27:27.703Z,19.79425346881917
2022-11-04T12:31:27.715Z,19.760851564438145
2022-11-04T12:34:29.446Z,19.770486727901517
2022-11-04T12:37:30.375Z,19.749931713749902
2022-11-04T12:42:06.417Z,19.730661392211914
2022-11-04T12:44:27.584Z,19.659361238107614
2022-11-04T12:47:46.903Z,19.652295460121604
2022-11-04T12:51:27.744Z,19.651010773274173
2022-11-04T12:54:39.631Z,19.522542180390154
2022-11-04T12:57:26.742Z,19.56108273915597
2022-11-04T13:01:44.670Z,19.493636772059197
2022-11-04T13:04:21.227Z,19.50391424952186
2022-11-04T13:07:22.804Z,19.541170115082878
2022-11-04T13:11:30.147Z,19.54887822710889
2022-11-04T13:14:26.313Z,19.487855691498044
2022-11-04T13:17:21.936Z,19.42747553876252
2022-11-04T13:21:20.578Z,19.3728764990753
2022-11-04T13:24:24.406Z,19.430044906145486
2022-11-04T13:27:20.992Z,19.389577378315245
2022-11-04T13:31:31.002Z,19.35617562290945
2022-11-04T13:34:27.667Z,19.369022450456487
2022-11-04T13:37:23.202Z,19.300291944246055
2022-11-04T13:41:38.532Z,19.309284717799166
2022-11-04T13:44:24.081Z,19.302861308027424
2022-11-04T13:47:52.990Z,19.312496422855567
2022-11-04T13:51:16.926Z,19.31056939980808
2022-11-04T13:54:28.606Z,19.205867875750936
2022-11-04T13:57:19.720Z,19.234130851934697
2022-11-04T14:01:27.404Z,19.2277074474835
2022-11-04T14:04:26.113Z,19.26817490311805
2022-11-04T14:07:18.344Z,19.2110065980386
2022-11-04T14:11:16.183Z,19.246977662201335
2022-11-04T14:14:18.814Z,19.216787660960108
2022-11-04T14:17:59.385Z,19.22449574542843
2022-11-04T14:21:19.212Z,19.252758727414765
2022-11-04T14:24:18.650Z,19.241838937876402
2022-11-04T14:27:29.726Z,19.21550298027905
2022-11-04T14:31:35.523Z,19.22899212833736
2022-11-04T14:34:26.564Z,19.17953192859459
2022-11-04T14:37:21.787Z,19.13392579428264
2022-11-04T14:41:28.954Z,19.1268600572148
2022-11-04T14:44:25.958Z,19.063268448365214
2022-11-04T14:47:23.842Z,19.00288857818241
2022-11-04T14:51:25.448Z,19.05106400327968
2022-11-04T14:54:21.415Z,19.043355933545172
2022-11-04T14:57:19.245Z,19.00353091701545
2022-11-04T15:01:32.954Z,18.9932534962325
2022-11-04T15:04:23.802Z,18.957924871170054
2022-11-04T15:07:35.524Z,18.957924871170054
2022-11-04T15:11:20.714Z,18.948932132441495
2022-11-04T15:14:21.825Z,18.847442714295994
2022-11-04T15:17:20.341Z,18.804406096574166
2022-11-04T15:21:16.189Z,18.850012065253487
2022-11-04T15:24:17.369Z,18.765865859223776
2022-11-04T15:27:18.737Z,18.712551891209387
2022-11-04T15:31:19.862Z,18.73117965960555
2022-11-04T15:34:17.981Z,18.69007010685891
2022-11-04T15:37:23.046Z,18.606566385185943
2022-11-04T15:42:45.451Z,18.616201426072166
2022-11-04T15:44:20.520Z,18.568668567627263
2022-11-04T15:47:23.409Z,18.521778069506762
2022-11-04T15:51:20.627Z,18.508289026590592
2022-11-04T15:54:20.753Z,18.384318392747083
2022-11-04T15:57:19.477Z,18.313019296639776
2022-11-04T16:01:19.384Z,18.241077923122155
2022-11-04T16:04:20.414Z,18.15821694752667
2022-11-04T16:07:24.295Z,18.106830334011466
2022-11-04T16:11:20.874Z,18.15821694752667
2022-11-04T16:14:25.378Z,18.08948735851891
2022-11-04T16:17:17.767Z,18.084991032080506
2022-11-04T16:21:23.142Z,18.065721064154058
2022-11-04T16:24:21.607Z,18.05865541027315
2022-11-04T16:27:19.941Z,18.020115489699766
2022-11-04T16:31:25.594Z,18.012407507549597
2022-11-04T16:34:17.704Z,17.95909398227268
2022-11-04T16:37:18.487Z,17.903853495152724
2022-11-04T16:41:16.931Z,17.921838766336442
2022-11-04T16:44:21.138Z,17.822919818945593
2022-11-04T16:47:17.954Z,17.822919818945593
2022-11-04T16:51:19.399Z,17.799795924718275
2022-11-04T16:54:17.637Z,17.772818055568496
2022-11-04T16:57:17.002Z,17.76896407491622
2022-11-04T17:01:17.073Z,17.758686793977176
2022-11-04T17:04:17.446Z,17.71115438477718
2022-11-04T17:07:17.230Z,17.65527171932272
2022-11-04T17:11:16.945Z,17.66811830603556
2022-11-04T17:14:17.626Z,17.589754155381616
2022-11-04T17:17:17.468Z,17.56084936280131
2022-11-04T17:21:19.662Z,17.580119223498333
2022-11-04T17:24:16.890Z,17.51717102704024
2022-11-04T17:27:16.679Z,17.425318124854037
2022-11-04T17:31:20.413Z,17.3758589083478
2022-11-04T17:34:17.069Z,17.276298229611804
2022-11-04T17:37:18.664Z,17.294283376394834
2022-11-04T17:51:16.810Z,17.061761396470047
2022-11-04T17:54:16.614Z,16.990463339683266
2022-11-04T17:57:17.686Z,16.85493295378701
2022-11-04T18:01:22.208Z,16.914026746441323
2022-11-04T18:04:23.510Z,16.840159511637466
2022-11-04T18:07:21.084Z,16.8125396045064
2022-11-04T18:12:39.238Z,16.752803555050924
2022-11-04T18:14:17.708Z,16.784919705783615
2022-11-04T18:17:17.970Z,16.77271556716596
2022-11-04T18:21:16.517Z,16.691782899979536
2022-11-04T18:24:17.505Z,16.603784764408193
2022-11-04T18:27:18.851Z,16.543406530979336
2022-11-04T18:31:22.779Z,16.567814748165254
2022-11-04T18:34:18.747Z,16.46889727702983
2022-11-04T18:37:17.283Z,16.42008090244817
2022-11-04T18:41:16.838Z,16.412373056231083
2022-11-04T18:44:18.768Z,16.351994950186054
2022-11-04T18:47:17.923Z,16.334009990195046
2022-11-04T18:51:18.352Z,16.35713351083832
2022-11-04T18:54:17.058Z,16.280055131613334
2022-11-04T18:57:17.284Z,16.21710783715571
2022-11-04T19:01:21.620Z,16.249866117596774
2022-11-04T19:04:17.118Z,16.205546093941667
2022-11-04T19:07:17.978Z,16.146452762746776
2022-11-04T19:11:19.410Z,16.156087542380646
2022-11-04T19:14:19.259Z,16.120117703634698
2022-11-04T19:17:18.059Z,16.069374562510347
2022-11-04T19:21:18.558Z,16.091213379262264
2022-11-04T19:24:17.586Z,16.040470254304182
2022-11-04T19:27:18.438Z,16.053958930321095
2022-11-04T19:31:18.050Z,16.014777543629407
2022-11-04T19:34:17.860Z,15.929991650025567
2022-11-04T19:37:17.182Z,15.938341772393324
2022-11-04T19:43:09.654Z,15.915860675461682
2022-11-04T19:44:18.693Z,15.872183131634028
2022-11-04T19:47:17.758Z,15.823367078122192
2022-11-04T19:51:18.280Z,15.841994253336816
2022-11-04T19:54:17.089Z,15.825936343441663
2022-11-04T19:57:16.983Z,15.803455274363296
2022-11-04T20:01:18.188Z,15.791251267767894
2022-11-04T20:04:17.660Z,15.727019681165348
2022-11-04T20:07:18.880Z,15.639022481345819
2022-11-04T20:11:20.534Z,15.739865994847879
2022-11-04T20:14:17.251Z,15.676276759902247
2022-11-04T20:17:17.093Z,15.622322292476019
2022-11-04T20:21:20.135Z,15.669211292103956
2022-11-04T20:24:18.633Z,15.648657207092128
2022-11-04T20:27:18.225Z,15.686553804954746
2022-11-04T20:31:20.309Z,15.63709553631934
2022-11-04T20:34:22.011Z,15.554236938897883
2022-11-04T20:37:17.702Z,15.529828994396667
2022-11-04T20:41:19.316Z,15.592133497320265
2022-11-04T20:44:17.694Z,15.461743710231167
2022-11-04T20:47:18.923Z,15.522121223813155
2022-11-04T20:51:18.853Z,15.49000552009711
2022-11-04T20:54:17.302Z,15.420635638869499
2022-11-04T20:57:17.395Z,15.419993325402265
2022-11-04T21:01:19.856Z,15.48294006680526
2022-11-04T21:04:21.101Z,15.380169899315025
2022-11-04T21:07:19.657Z,15.359615879786816
2022-11-04T21:11:16.545Z,15.411643250742054
2022-11-04T21:14:18.454Z,15.402008550166011
2022-11-04T21:17:17.384Z,15.348054245848562
2022-11-04T21:21:17.288Z,15.31915016744897
2022-11-04T21:24:17.421Z,15.265838224779236
2022-11-04T21:27:18.401Z,15.268407474309878
2022-11-04T21:31:20.343Z,15.263268975321353
2022-11-04T21:34:17.506Z,15.201607010160023
2022-11-04T21:37:17.416Z,15.117464187814402
2022-11-04T21:41:18.675Z,15.157287498586811
2022-11-04T21:44:16.041Z,15.044883037337513
2022-11-04T21:47:16.074Z,14.993498187150635
2022-11-04T21:51:18.577Z,15.002490533832406
2022-11-04T21:54:17.228Z,14.967163462709868
2022-11-04T21:57:16.739Z,14.950463397513158
2022-11-04T22:01:19.464Z,14.9594557399294
2022-11-04T22:04:17.274Z,14.929909475337263
2022-11-04T22:08:18.064Z,14.912567107123413
2022-11-04T22:11:19.156Z,14.945324916532627
2022-11-04T22:14:16.575Z,14.882378548140696
2022-11-04T22:17:16.262Z,14.90935555781798
2022-11-04T22:21:18.001Z,14.985790462132808
2022-11-04T22:24:18.046Z,14.922844065664776
2022-11-04T22:27:16.472Z,14.917705586248577
2022-11-04T22:31:20.032Z,14.877240071016422
2022-11-04T22:34:18.811Z,14.807228349195157
2022-11-04T22:37:19.954Z,14.795024476609251
2022-11-04T22:41:19.375Z,14.789243695431015
2022-11-04T22:44:17.204Z,14.768689809780426
2022-11-04T22:47:17.650Z,14.765478265568163
2022-11-04T22:51:17.096Z,14.754559016096845
2022-11-04T22:54:17.456Z,14.737858990035694
2022-11-04T22:57:17.151Z,14.757128251148334
2022-11-04T23:01:17.441Z,14.736574372773703
2022-11-04T23:04:17.089Z,14.69546662999428
2022-11-04T23:07:19.805Z,14.694182013332556
2022-11-04T23:31:16.363Z,14.799520640002537
2022-11-04T23:42:22.182Z,14.786032150491156
